METAR Data
IDs: Format: Raw Decoded Include TAF

Data at: 1036 UTC 26 Sep 2018

KMYV 260953Z AUTO 15003KT 10SM CLR 13/06 A2993 RMK AO2 SLP137 T01330056 $
KMYV 260853Z AUTO 00000KT 10SM CLR 14/04 A2992 RMK AO2 SLP133 T01390044 51010 $
KMYV 260753Z AUTO 09003KT 10SM CLR 17/05 A2990 RMK AO2 SLP130 T01670050 403500100 $
KMYV 260653Z AUTO 00000KT 10SM CLR 14/04 A2990 RMK AO2 SLP127 T01440044 $
KMYV 260553Z AUTO 00000KT 10SM CLR 18/04 A2988 RMK AO2 SLP123 T01830039 10350 20178 51008
KMYV 260453Z AUTO 10003KT 10SM CLR 20/07 A2988 RMK AO2 SLP122 T02000072
KMYV 260353Z AUTO 11003KT 10SM CLR 21/08 A2987 RMK AO2 SLP119 T02110078
KMYV 260253Z AUTO 00000KT 10SM CLR 25/09 A2986 RMK AO2 SLP114 T02500089 53004
KMYV 260153Z AUTO 14003KT 10SM CLR 29/07 A2985 RMK AO2 SLP112 T02890072
KMYV 260053Z AUTO 14005KT 10SM CLR 33/07 A2985 RMK AO2 SLP111 T03280067
KMYV 252353Z AUTO 30003KT 10SM CLR 34/00 A2985 RMK AO2 SLP111 T03440000 10350 20261 56010
KMYV 252253Z AUTO 00000KT 10SM CLR 35/M01 A2985 RMK AO2 SLP112 T03501011
KMYV 252153Z AUTO VRB06KT 10SM CLR 34/M01 A2986 RMK AO2 SLP116 T03441011
KMYV 252053Z AUTO 34007KT 10SM CLR 34/M01 A2988 RMK AO2 SLP121 T03441006 58014 $
KMYV 251953Z AUTO 35007KT 310V020 10SM CLR 33/02 A2989 RMK AO2 SLP125 T03330017 $
KMYV 251853Z AUTO 32007KT 10SM CLR 29/05 A2991 RMK AO2 SLP131 T02940050 $
KMYV 251753Z AUTO 35007KT 10SM FEW003 26/03 A2992 RMK AO2 SLP135 T02610028 10261 20100 50006 $
KMYV 251653Z AUTO 36004KT 10SM CLR 22/04 A2992 RMK AO2 SLP136 T02220044
KMYV 251553Z AUTO 00000KT 10SM CLR 19/04 A2992 RMK AO2 SLP134 T01890044
KMYV 251453Z AUTO 34003KT 10SM CLR 16/06 A2990 RMK AO2 SLP129 T01560056 53014 $
KMYV 251353Z AUTO 00000KT 10SM 12/07 A2989 RMK AO2 SLP124 T01170067 $
KMYV 251253Z AUTO 07003KT 10SM CLR 14/06 A2987 RMK AO2 SLP119 T01440061
KMYV 251153Z AUTO 00000KT 10SM CLR 13/07 A2986 RMK AO2 SLP115 T01280072 10172 20100 53006
KMYV 251053Z AUTO 00000KT 10SM CLR 12/07 A2985 RMK AO2 SLP112 T01170072
KMYV 250953Z AUTO 00000KT 10SM CLR 13/08 A2985 RMK AO2 SLP109 T01330078
KMYV 250853Z AUTO 00000KT 10SM CLR 14/07 A2984 RMK AO2 SLP109 T01440072 51005
KMYV 250753Z AUTO 05003KT 10SM CLR 16/07 A2984 RMK AO2 SLP107 T01560072 403330100
KMYV 250653Z AUTO 02003KT 10SM CLR 17/08 A2983 RMK AO2 SLP106 T01670078
KMYV 250553Z AUTO 10SM CLR 16/09 A2983 RMK AO2 SLP103 T01560089 10333 20150 51013
KMYV 250453Z AUTO 00000KT 10SM CLR 17/08 A2981 RMK AO2 SLP099 T01720078
KMYV 250353Z AUTO 00000KT 10SM CLR 20/07 A2981 RMK AO2 SLP096 T02000072
KMYV 250253Z AUTO 00000KT 10SM CLR 23/08 A2979 RMK AO2 SLP090 T02280078 53001
KMYV 250153Z AUTO 02005KT 10SM CLR 29/06 A2978 RMK AO2 SLP089 T02890061
KMYV 250053Z AUTO 35003KT 10SM CLR 33/05 A2978 RMK AO2 SLP087 T03280050
KMYV 242353Z AUTO 30004KT 10SM CLR 33/01 A2978 RMK AO2 SLP089 T03330011 10333 20250 56012
KMYV 242253Z AUTO 36005KT 10SM CLR 33/03 A2979 RMK AO2 SLP090 T03330028